createdAt,value
2018-07-01T00:00:12.078Z,3.17
2018-07-01T00:02:40.571Z,1.50
2018-07-01T00:05:09.252Z,2.17
2018-07-01T00:07:39.063Z,1.70
2018-07-01T00:10:07.641Z,3.12
2018-07-01T00:12:36.233Z,1.50
2018-07-01T00:15:05.667Z,1.40
2018-07-01T00:17:34.020Z,1.80
2018-07-01T00:20:02.302Z,1.82
2018-07-01T00:22:30.578Z,1.67
2018-07-01T00:24:58.822Z,1.50
2018-07-01T00:27:27.066Z,2.22
2018-07-01T00:29:55.980Z,1.90
2018-07-01T00:32:24.232Z,1.75
2018-07-01T00:34:52.466Z,1.50
2018-07-01T00:37:21.213Z,1.32
2018-07-01T00:39:49.520Z,1.50
2018-07-01T00:42:17.754Z,1.40
2018-07-01T00:44:46.083Z,2.30
2018-07-01T00:47:14.322Z,1.50
2018-07-01T00:49:42.570Z,1.20
2018-07-01T00:52:11.070Z,1.52
2018-07-01T00:54:39.290Z,1.40
2018-07-01T00:57:07.518Z,1.98
2018-07-01T00:59:36.314Z,1.72
2018-07-01T01:02:04.551Z,1.32
2018-07-01T01:04:32.774Z,1.65
2018-07-01T01:07:01.462Z,1.40
2018-07-01T01:09:31.063Z,1.67
2018-07-01T01:11:59.307Z,1.77
2018-07-01T01:14:27.647Z,1.98
2018-07-01T01:16:55.889Z,1.82
2018-07-01T01:19:24.109Z,1.70
2018-07-01T01:21:52.391Z,1.47
2018-07-01T01:24:20.609Z,1.20
2018-07-01T01:26:48.850Z,1.12
2018-07-01T01:29:17.588Z,1.30
2018-07-01T01:31:45.820Z,1.55
2018-07-01T01:34:14.072Z,1.62
2018-07-01T01:36:43.190Z,1.92
2018-07-01T01:39:17.624Z,1.30
2018-07-01T01:41:53.268Z,1.10
2018-07-01T01:45:24.594Z,1.32
2018-07-01T01:48:00.585Z,1.30
2018-07-01T01:50:39.150Z,1.95
2018-07-01T01:53:11.242Z,1.75
2018-07-01T01:56:13.803Z,1.10
2018-07-01T01:59:46.066Z,2.00
2018-07-01T02:02:18.011Z,1.15
2018-07-01T02:04:52.346Z,1.22
2018-07-01T02:07:31.274Z,1.30
2018-07-01T02:10:00.018Z,1.20
2018-07-01T02:12:28.250Z,1.50
2018-07-01T02:14:59.138Z,1.42
2018-07-01T02:17:33.075Z,1.35
2018-07-01T02:20:01.309Z,1.20
2018-07-01T02:22:40.694Z,2.20
2018-07-01T02:25:13.629Z,1.10
2018-07-01T02:27:41.953Z,1.10
2018-07-01T02:30:10.201Z,1.20
2018-07-01T02:32:38.430Z,0.90
2018-07-01T02:35:07.105Z,1.15
2018-07-01T02:37:35.355Z,1.52
2018-07-01T02:40:03.627Z,1.20
2018-07-01T02:42:32.338Z,1.00
2018-07-01T02:45:00.573Z,1.00
2018-07-01T02:47:28.801Z,1.80
2018-07-01T02:49:57.057Z,1.25
2018-07-01T02:52:25.591Z,1.57
2018-07-01T02:54:53.969Z,1.15
2018-07-01T02:57:22.251Z,1.20
2018-07-01T02:59:50.547Z,1.15
2018-07-01T03:02:18.783Z,1.02
2018-07-01T03:04:47.237Z,1.52
2018-07-01T03:07:16.712Z,1.20
2018-07-01T03:09:44.938Z,1.25
2018-07-01T03:12:13.297Z,0.98
2018-07-01T03:14:41.528Z,1.15
2018-07-01T03:17:09.787Z,1.10
2018-07-01T03:19:38.087Z,0.98
2018-07-01T03:22:06.314Z,0.90
2018-07-01T03:24:34.546Z,0.88
2018-07-01T03:27:03.466Z,1.10
2018-07-01T03:29:31.682Z,1.10
2018-07-01T03:31:59.917Z,1.20
2018-07-01T03:34:28.404Z,1.25
2018-07-01T03:36:56.922Z,0.80
2018-07-01T03:39:25.154Z,0.85
2018-07-01T03:41:53.434Z,0.88
2018-07-01T03:44:21.661Z,0.95
2018-07-01T03:46:49.888Z,0.78
2018-07-01T03:49:18.373Z,0.90
2018-07-01T03:51:46.624Z,1.40
2018-07-01T03:54:15.015Z,0.90
2018-07-01T03:56:43.370Z,1.02
2018-07-01T03:59:11.586Z,1.17
2018-07-01T04:01:39.811Z,0.70
2018-07-01T04:04:08.104Z,1.00
2018-07-01T04:06:36.350Z,0.88
2018-07-01T04:09:09.271Z,0.90
2018-07-01T04:11:37.542Z,0.68
2018-07-01T04:14:05.770Z,0.95
2018-07-01T04:16:34.079Z,0.90
2018-07-01T04:19:02.511Z,0.98
2018-07-01T04:21:30.749Z,0.90
2018-07-01T04:23:58.981Z,0.80
2018-07-01T04:26:27.751Z,0.95
2018-07-01T04:28:56.016Z,1.07
2018-07-01T04:31:24.438Z,0.90
2018-07-01T04:33:53.189Z,0.98
2018-07-01T04:36:21.424Z,0.85
2018-07-01T04:38:49.763Z,1.20
2018-07-01T04:41:18.321Z,0.70
2018-07-01T04:43:46.624Z,0.70
2018-07-01T04:46:14.857Z,0.80
2018-07-01T04:48:43.673Z,1.10
2018-07-01T04:51:11.905Z,0.78
2018-07-01T04:53:40.127Z,1.12
2018-07-01T04:56:08.418Z,0.82
2018-07-01T04:58:36.649Z,0.80
2018-07-01T05:01:04.958Z,1.00
2018-07-01T05:03:34.658Z,0.62
2018-07-01T05:06:02.909Z,0.70
2018-07-01T05:08:32.139Z,0.90
2018-07-01T05:11:01.234Z,1.07
2018-07-01T05:13:29.486Z,1.02
2018-07-01T05:15:57.709Z,0.70
2018-07-01T05:18:28.018Z,0.72
2018-07-01T05:20:56.266Z,0.80
2018-07-01T05:23:24.500Z,0.70
2018-07-01T05:25:54.278Z,1.10
2018-07-01T05:28:22.509Z,0.70
2018-07-01T05:30:50.760Z,0.80
2018-07-01T05:33:19.414Z,0.90
2018-07-01T05:35:47.702Z,0.88
2018-07-01T05:38:15.935Z,0.72
2018-07-01T05:40:44.450Z,0.98
2018-07-01T05:43:12.690Z,0.72
2018-07-01T05:45:41.023Z,0.70
2018-07-01T05:48:09.695Z,0.70
2018-07-01T05:50:37.921Z,1.05
2018-07-01T05:53:06.371Z,0.68
2018-07-01T05:55:34.722Z,0.82
2018-07-01T05:58:02.966Z,0.80
2018-07-01T06:00:31.219Z,0.72
2018-07-01T06:03:01.452Z,0.60
2018-07-01T06:05:29.697Z,0.85
2018-07-01T06:08:04.822Z,0.70
2018-07-01T06:10:33.055Z,1.02
2018-07-01T06:13:01.506Z,0.70
2018-07-01T06:15:29.802Z,0.60
2018-07-01T06:17:58.038Z,0.62
2018-07-01T06:20:26.265Z,0.80
2018-07-01T06:22:54.541Z,0.60
2018-07-01T06:25:22.770Z,0.88
2018-07-01T06:27:51.012Z,0.53
2018-07-01T06:30:20.017Z,0.80
2018-07-01T06:32:48.326Z,0.70
2018-07-01T06:35:16.498Z,0.80
2018-07-01T06:37:45.890Z,0.60
2018-07-01T06:40:14.141Z,0.75
2018-07-01T06:42:42.414Z,0.70
2018-07-01T06:45:10.713Z,5.37
2018-07-01T06:47:38.947Z,1.77
2018-07-01T06:50:07.269Z,4.08
2018-07-01T06:52:36.563Z,5.97
2018-07-01T06:55:04.895Z,4.47
2018-07-01T06:57:33.177Z,3.62
2018-07-01T07:00:01.754Z,4.78
2018-07-01T07:02:29.991Z,5.95
2018-07-01T07:04:58.238Z,5.22
2018-07-01T07:07:30.046Z,5.62
2018-07-01T07:09:58.289Z,2.50
2018-07-01T07:12:26.542Z,8.30
2018-07-01T07:14:55.357Z,10.05
2018-07-01T07:17:23.610Z,10.50
2018-07-01T07:19:51.886Z,11.88
2018-07-01T07:22:20.494Z,6.45
2018-07-01T07:24:48.726Z,5.92
2018-07-01T07:27:17.048Z,7.35
2018-07-01T07:29:45.422Z,4.37
2018-07-01T07:32:13.643Z,6.65
2018-07-01T07:34:42.123Z,10.10
2018-07-01T07:37:10.570Z,6.42
2018-07-01T07:39:38.815Z,12.28
2018-07-01T07:42:07.064Z,10.43
2018-07-01T07:44:35.471Z,12.13
2018-07-01T07:47:03.726Z,14.60
2018-07-01T07:49:31.963Z,13.22
2018-07-01T07:52:00.839Z,11.20
2018-07-01T07:54:29.118Z,4.17
2018-07-01T07:56:57.397Z,6.30
2018-07-01T07:59:25.735Z,5.40
2018-07-01T08:01:54.013Z,13.95
2018-07-01T08:04:22.214Z,5.65
2018-07-01T08:06:50.701Z,7.50
2018-07-01T08:09:21.035Z,16.37
2018-07-01T08:11:49.283Z,15.70
2018-07-01T08:14:17.655Z,10.32
2018-07-01T08:16:45.902Z,8.95
2018-07-01T08:19:14.143Z,8.38
2018-07-01T08:21:42.923Z,10.20
2018-07-01T08:24:11.205Z,9.80
2018-07-01T08:26:39.435Z,7.70
2018-07-01T08:29:08.880Z,17.25
2018-07-01T08:31:37.135Z,7.62
2018-07-01T08:34:05.469Z,6.72
2018-07-01T08:36:33.525Z,8.25
2018-07-01T08:39:01.767Z,4.95
2018-07-01T08:41:36.717Z,10.43
2018-07-01T08:44:04.961Z,12.13
2018-07-01T08:46:33.193Z,8.30
2018-07-01T08:49:02.065Z,9.28
2018-07-01T08:51:30.329Z,5.78
2018-07-01T08:53:58.602Z,9.85
2018-07-01T08:56:26.883Z,8.28
2018-07-01T08:58:55.140Z,6.30
2018-07-01T09:01:23.365Z,6.42
2018-07-01T09:03:51.661Z,7.37
2018-07-01T09:06:20.182Z,8.18
2018-07-01T09:08:51.067Z,8.40
2018-07-01T09:11:19.895Z,4.67
2018-07-01T09:13:48.127Z,15.05
2018-07-01T09:16:16.694Z,10.57
2018-07-01T09:18:45.017Z,6.87
2018-07-01T09:21:13.281Z,13.08
2018-07-01T09:23:41.726Z,7.83
2018-07-01T09:26:09.974Z,10.45
2018-07-01T09:28:38.246Z,17.57
2018-07-01T09:31:06.866Z,8.15
2018-07-01T09:33:35.103Z,4.42
2018-07-01T09:36:03.344Z,8.65
2018-07-01T09:38:31.613Z,5.03
2018-07-01T09:40:59.881Z,9.15
2018-07-01T09:43:28.152Z,8.70
2018-07-01T09:45:56.629Z,8.13
2018-07-01T09:48:25.108Z,9.68
2018-07-01T09:50:53.357Z,7.75
2018-07-01T09:53:22.591Z,6.20
2018-07-01T09:55:50.871Z,6.03
2018-07-01T09:58:19.111Z,7.10
2018-07-01T10:00:47.689Z,6.60
2018-07-01T10:03:15.910Z,5.50
2018-07-01T10:05:44.148Z,5.40
2018-07-01T10:08:14.398Z,6.40
2018-07-01T10:10:42.642Z,9.23
2018-07-01T10:13:10.935Z,10.28
2018-07-01T10:15:39.326Z,5.70
2018-07-01T10:18:07.575Z,5.45
2018-07-01T10:20:35.891Z,3.90
2018-07-01T10:23:04.179Z,5.97
2018-07-01T10:25:32.414Z,5.28
2018-07-01T10:28:00.653Z,8.28
2018-07-01T10:30:29.197Z,8.40
2018-07-01T10:32:57.446Z,3.80
2018-07-01T10:35:25.698Z,6.15
2018-07-01T10:37:53.984Z,5.72
2018-07-01T10:40:22.218Z,7.25
2018-07-01T10:42:50.438Z,3.72
2018-07-01T10:45:18.987Z,5.42
2018-07-01T10:47:47.230Z,6.53
2018-07-01T10:50:15.483Z,3.08
2018-07-01T10:52:44.504Z,5.95
2018-07-01T10:55:12.722Z,5.22
2018-07-01T10:57:41.063Z,5.22
2018-07-01T11:00:09.538Z,2.17
2018-07-01T11:02:37.781Z,2.75
2018-07-01T11:05:06.147Z,4.60
2018-07-01T11:07:36.213Z,5.62
2018-07-01T11:10:04.506Z,3.20
2018-07-01T11:12:32.755Z,5.03
2018-07-01T11:15:01.460Z,3.72
2018-07-01T11:17:29.721Z,3.30
2018-07-01T11:19:58.019Z,3.10
2018-07-01T11:22:26.604Z,2.15
2018-07-01T11:24:54.884Z,3.55
2018-07-01T11:27:23.249Z,4.35
2018-07-01T11:29:51.660Z,2.72
2018-07-01T11:32:19.894Z,2.70
2018-07-01T11:34:48.157Z,4.33
2018-07-01T11:37:16.474Z,1.12
2018-07-01T11:39:44.789Z,3.12
2018-07-01T11:42:13.041Z,3.12
2018-07-01T11:44:42.015Z,3.62
2018-07-01T11:47:10.240Z,2.15
2018-07-01T11:49:38.622Z,3.10
2018-07-01T11:52:07.770Z,2.70
2018-07-01T11:54:36.218Z,3.62
2018-07-01T11:57:04.571Z,4.35
2018-07-01T11:59:33.403Z,6.17
2018-07-01T12:02:01.708Z,2.95
2018-07-01T12:04:29.937Z,6.95
2018-07-01T12:06:58.169Z,3.10
2018-07-01T12:09:46.588Z,4.80
2018-07-01T12:12:14.825Z,12.88
2018-07-01T12:14:43.125Z,16.12
2018-07-01T12:17:11.417Z,10.43
2018-07-01T12:19:39.672Z,11.18
2018-07-01T12:22:08.178Z,13.80
2018-07-01T12:24:36.422Z,11.78
2018-07-01T12:27:04.707Z,12.98
2018-07-01T12:29:34.031Z,17.50
2018-07-01T12:32:02.282Z,17.77
2018-07-01T12:34:30.514Z,16.12
2018-07-01T12:36:58.855Z,13.28
2018-07-01T12:39:27.175Z,19.55
2018-07-01T12:41:55.505Z,15.68
2018-07-01T12:44:23.734Z,18.62
2018-07-01T12:46:51.979Z,8.85
2018-07-01T12:49:20.400Z,15.78
2018-07-01T12:51:49.048Z,15.58
2018-07-01T12:54:17.294Z,14.70
2018-07-01T12:56:45.543Z,10.85
2018-07-01T12:59:14.799Z,9.88
2018-07-01T13:01:43.054Z,9.18
2018-07-01T13:04:11.314Z,12.53
2018-07-01T13:06:39.631Z,12.25
2018-07-01T13:09:12.643Z,9.45
2018-07-01T13:11:42.469Z,11.15
2018-07-01T13:14:10.714Z,13.48
2018-07-01T13:16:38.970Z,14.05
2018-07-01T13:19:08.066Z,14.35
2018-07-01T13:21:36.334Z,15.63
2018-07-01T13:24:04.647Z,12.10
2018-07-01T13:26:33.623Z,12.98
2018-07-01T13:29:01.879Z,16.80
2018-07-01T13:31:30.146Z,13.08
2018-07-01T13:33:58.497Z,79.75
2018-07-01T13:36:26.734Z,25.15
2018-07-01T13:38:55.015Z,23.47
2018-07-01T13:41:23.479Z,24.05
2018-07-01T13:43:51.786Z,22.95
2018-07-01T13:46:19.785Z,18.85
2018-07-01T13:48:49.134Z,15.95
2018-07-01T13:51:17.376Z,12.25
2018-07-01T13:53:48.053Z,24.82
2018-07-01T13:56:16.318Z,16.57
2018-07-01T13:58:44.577Z,15.00
2018-07-01T14:01:12.866Z,15.18
2018-07-01T14:03:41.139Z,17.87
2018-07-01T14:06:09.390Z,16.57
2018-07-01T14:08:37.708Z,10.05
2018-07-01T14:11:06.046Z,13.20
2018-07-01T14:13:34.911Z,6.50
2018-07-01T14:16:03.244Z,11.35
2018-07-01T14:18:31.562Z,12.58
2018-07-01T14:20:59.818Z,11.25
2018-07-01T14:25:47.560Z,13.58
2018-07-01T14:28:15.805Z,9.63
2018-07-01T14:30:44.066Z,9.58
2018-07-01T14:33:12.895Z,12.82
2018-07-01T14:35:41.159Z,7.62
2018-07-01T14:38:09.422Z,10.25
2018-07-01T14:40:37.778Z,9.98
2018-07-01T14:43:06.026Z,8.93
2018-07-01T14:45:34.311Z,9.60
2018-07-01T14:48:02.967Z,9.85
2018-07-01T14:50:31.236Z,9.73
2018-07-01T14:52:59.510Z,10.43
2018-07-01T14:55:28.412Z,8.10
2018-07-01T14:57:56.667Z,8.63
2018-07-01T15:00:25.119Z,8.88
2018-07-01T15:02:53.422Z,8.93
2018-07-01T15:05:21.655Z,9.38
2018-07-01T15:07:51.749Z,9.03
2018-07-01T15:10:20.322Z,10.18
2018-07-01T15:12:48.552Z,7.80
2018-07-01T15:15:16.789Z,7.83
2018-07-01T15:17:45.267Z,8.20
2018-07-01T15:20:13.539Z,10.00
2018-07-01T15:22:41.836Z,8.55
2018-07-01T15:25:10.806Z,9.03
2018-07-01T15:27:39.048Z,12.03
2018-07-01T15:30:07.811Z,8.18
2018-07-01T15:32:36.095Z,8.85
2018-07-01T15:35:04.356Z,10.08
2018-07-01T15:37:32.626Z,9.35
2018-07-01T15:40:00.944Z,9.50
2018-07-01T15:42:29.191Z,8.78
2018-07-01T15:44:57.423Z,6.72
2018-07-01T15:47:25.878Z,7.55
2018-07-01T15:49:54.134Z,8.18
2018-07-01T15:52:22.383Z,10.43
2018-07-01T15:54:50.957Z,9.93
2018-07-01T15:57:19.217Z,10.18
2018-07-01T15:59:47.486Z,7.83
2018-07-01T16:02:15.818Z,7.72
2018-07-01T16:04:44.074Z,6.50
2018-07-01T16:07:12.325Z,6.40
2018-07-01T16:09:42.760Z,7.65
2018-07-01T16:12:10.996Z,7.00
2018-07-01T16:14:39.280Z,7.92
2018-07-01T16:17:10.976Z,4.87
2018-07-01T16:19:39.278Z,6.70
2018-07-01T16:22:07.548Z,7.75
2018-07-01T16:24:41.238Z,7.20
2018-07-01T16:27:15.898Z,6.62
2018-07-01T16:29:46.222Z,6.58
2018-07-01T16:32:14.521Z,7.28
2018-07-01T16:34:42.809Z,7.08
2018-07-01T16:37:11.230Z,5.95
2018-07-01T16:39:39.470Z,6.75
2018-07-01T16:42:07.707Z,5.10
2018-07-01T16:44:35.757Z,6.50
2018-07-01T16:47:04.040Z,5.83
2018-07-01T16:49:32.337Z,5.67
2018-07-01T16:52:01.199Z,5.60
2018-07-01T16:54:29.458Z,7.12
2018-07-01T16:56:57.714Z,5.55
2018-07-01T16:59:26.335Z,4.05
2018-07-01T17:01:54.594Z,6.17
2018-07-01T17:04:22.854Z,6.35
2018-07-01T17:06:51.362Z,4.50
2018-07-01T17:09:19.599Z,5.25
2018-07-01T17:11:48.549Z,4.08
2018-07-01T17:14:17.221Z,5.37
2018-07-01T17:16:45.463Z,4.62
2018-07-01T17:19:13.688Z,5.20
2018-07-01T17:21:41.979Z,6.25
2018-07-01T17:24:10.218Z,5.30
2018-07-01T17:26:38.451Z,4.87
2018-07-01T17:29:07.799Z,4.87
2018-07-01T17:31:41.471Z,5.22
2018-07-01T17:34:09.773Z,4.25
2018-07-01T17:36:38.002Z,5.53
2018-07-01T17:39:08.436Z,5.62
2018-07-01T17:41:36.951Z,5.05
2018-07-01T17:44:05.257Z,4.30
2018-07-01T17:46:33.504Z,4.95
2018-07-01T17:49:02.567Z,4.65
2018-07-01T17:51:30.818Z,4.87
2018-07-01T17:53:59.117Z,4.72
2018-07-01T17:56:27.617Z,5.00
2018-07-01T17:58:55.906Z,5.62
2018-07-01T18:01:24.159Z,4.15
2018-07-01T18:03:52.453Z,4.75
2018-07-01T18:06:20.733Z,5.72
2018-07-01T18:08:49.035Z,7.08
2018-07-01T18:11:18.018Z,11.03
2018-07-01T18:13:47.004Z,9.45
2018-07-01T18:16:15.265Z,7.25
2018-07-01T18:18:43.585Z,6.85
2018-07-01T18:21:11.949Z,8.55
2018-07-01T18:24:11.118Z,6.05
2018-07-01T18:26:08.403Z,7.42
2018-07-01T18:28:48.656Z,8.10
2018-07-01T18:31:04.997Z,4.62
2018-07-01T18:33:33.978Z,8.58
2018-07-01T18:36:02.220Z,3.77
2018-07-01T18:38:30.500Z,7.15
2018-07-01T18:40:59.001Z,6.53
2018-07-01T18:43:27.244Z,5.28
2018-07-01T18:45:55.533Z,6.20
2018-07-01T18:48:23.842Z,6.85
2018-07-01T18:50:52.104Z,5.30
2018-07-01T18:53:20.391Z,6.83
2018-07-01T18:55:49.577Z,6.00
2018-07-01T18:58:17.819Z,5.37
2018-07-01T19:00:46.062Z,5.35
2018-07-01T19:03:15.436Z,7.85
2018-07-01T19:05:43.694Z,5.83
2018-07-01T19:08:11.947Z,6.80
2018-07-01T19:10:40.282Z,4.87
2018-07-01T19:13:08.803Z,5.97
2018-07-01T19:15:37.720Z,7.70
2018-07-01T19:18:07.647Z,8.78
2018-07-01T19:20:36.088Z,7.45
2018-07-01T19:23:04.349Z,6.37
2018-07-01T19:25:33.094Z,4.70
2018-07-01T19:28:01.355Z,6.78
2018-07-01T19:30:29.660Z,8.03
2018-07-01T19:32:58.343Z,7.60
2018-07-01T19:35:26.766Z,6.12
2018-07-01T19:37:55.173Z,4.75
2018-07-01T19:40:24.306Z,4.40
2018-07-01T19:42:52.629Z,4.17
2018-07-01T19:45:20.807Z,4.00
2018-07-01T19:47:49.088Z,4.92
2018-07-01T19:50:17.327Z,4.53
2018-07-01T19:52:45.602Z,4.47
2018-07-01T19:55:14.260Z,3.17
2018-07-01T19:57:42.539Z,4.47
2018-07-01T20:00:10.754Z,4.97
2018-07-01T20:02:39.926Z,5.10
2018-07-01T20:05:08.198Z,6.65
2018-07-01T20:07:36.475Z,6.58
2018-07-01T20:10:04.860Z,5.17
2018-07-01T20:12:33.181Z,2.70
2018-07-01T20:15:01.426Z,3.90
2018-07-01T20:17:30.102Z,2.98
2018-07-01T20:19:58.367Z,5.75
2018-07-01T20:22:26.667Z,4.05
2018-07-01T20:24:55.418Z,4.12
2018-07-01T20:27:23.699Z,5.17
2018-07-01T20:29:51.956Z,5.70
2018-07-01T20:32:20.256Z,5.42
2018-07-01T20:34:48.523Z,3.42
2018-07-01T20:37:16.846Z,2.65
2018-07-01T20:39:45.163Z,5.60
2018-07-01T20:42:13.497Z,5.28
2018-07-01T20:44:41.740Z,3.52
2018-07-01T20:47:10.743Z,4.05
2018-07-01T20:49:39.076Z,2.85
2018-07-01T20:52:07.310Z,2.92
2018-07-01T20:54:35.615Z,2.10
2018-07-01T20:57:03.850Z,3.35
2018-07-01T20:59:32.127Z,3.27
2018-07-01T21:02:00.444Z,3.72
2018-07-01T21:04:28.922Z,2.80
2018-07-01T21:06:57.325Z,2.33
2018-07-01T21:09:25.954Z,3.02
2018-07-01T21:11:54.254Z,3.72
2018-07-01T21:14:22.623Z,2.47
2018-07-01T21:16:50.929Z,4.17
2018-07-01T21:19:20.178Z,3.02
2018-07-01T21:21:48.446Z,2.00
2018-07-01T21:24:16.950Z,2.42
2018-07-01T21:26:45.276Z,1.80
2018-07-01T21:29:13.566Z,3.10
2018-07-01T21:31:42.390Z,1.95
2018-07-01T21:34:10.659Z,2.15
2018-07-01T21:36:38.919Z,2.27
2018-07-01T21:39:09.095Z,4.20
2018-07-01T21:41:38.023Z,2.30
2018-07-01T21:44:06.606Z,2.08
2018-07-01T21:46:34.913Z,3.33
2018-07-01T21:49:03.223Z,3.27
2018-07-01T21:51:31.467Z,3.80
2018-07-01T21:54:00.055Z,1.80
2018-07-01T21:56:28.366Z,2.90
2018-07-01T21:58:56.609Z,2.08
2018-07-01T22:01:24.916Z,2.22
2018-07-01T22:03:53.163Z,2.20
2018-07-01T22:06:21.450Z,1.90
2018-07-01T22:08:49.765Z,1.62
2018-07-01T22:11:44.163Z,2.35
2018-07-01T22:14:26.125Z,3.27
2018-07-01T22:16:54.521Z,2.17
2018-07-01T22:19:24.665Z,2.02
2018-07-01T22:21:53.744Z,1.95
2018-07-01T22:24:23.198Z,1.25
2018-07-01T22:26:51.474Z,2.95
2018-07-01T22:29:19.972Z,3.15
2018-07-01T22:31:48.205Z,2.62
2018-07-01T22:34:17.484Z,2.15
2018-07-01T22:36:46.942Z,1.47
2018-07-01T22:39:19.266Z,1.70
2018-07-01T22:41:48.240Z,1.47
2018-07-01T22:44:16.497Z,1.82
2018-07-01T22:46:45.547Z,2.00
2018-07-01T22:49:13.862Z,1.82
2018-07-01T22:51:42.284Z,2.47
2018-07-01T22:54:10.553Z,2.42
2018-07-01T22:56:39.407Z,1.50
2018-07-01T22:59:07.718Z,1.85
2018-07-01T23:01:36.572Z,2.20
2018-07-01T23:04:05.054Z,1.75
2018-07-01T23:06:33.309Z,1.50
2018-07-01T23:09:01.551Z,1.37
2018-07-01T23:11:29.814Z,1.98
2018-07-01T23:13:58.060Z,1.67
2018-07-01T23:16:26.318Z,2.50
2018-07-01T23:18:55.122Z,1.30
2018-07-01T23:21:24.013Z,1.20
2018-07-01T23:23:52.253Z,1.67
2018-07-01T23:26:20.534Z,0.93
2018-07-01T23:28:48.758Z,1.45
2018-07-01T23:31:17.258Z,1.65
2018-07-01T23:33:45.801Z,1.15
2018-07-01T23:36:14.050Z,0.98
2018-07-01T23:38:42.378Z,1.50
2018-07-01T23:41:11.768Z,1.32
2018-07-01T23:43:40.015Z,3.05
2018-07-01T23:46:08.240Z,1.62
2018-07-01T23:48:36.743Z,0.90
2018-07-01T23:51:04.975Z,1.32
2018-07-01T23:53:33.240Z,1.22
2018-07-01T23:56:01.767Z,1.37
2018-07-01T23:58:29.737Z,1.00
